createdAt,value
2019-02-16T00:00:30.474Z,3.85
2019-02-16T00:02:59.466Z,3.95
2019-02-16T00:05:28.254Z,4.17
2019-02-16T00:07:56.888Z,3.52
2019-02-16T00:10:25.660Z,4.72
2019-02-16T00:12:56.598Z,3.92
2019-02-16T00:15:25.919Z,3.75
2019-02-16T00:17:54.282Z,4.03
2019-02-16T00:20:22.601Z,3.50
2019-02-16T00:22:51.450Z,3.80
2019-02-16T00:25:20.134Z,4.42
2019-02-16T00:27:49.026Z,3.87
2019-02-16T00:30:17.339Z,3.87
2019-02-16T00:32:49.290Z,4.25
2019-02-16T00:35:16.274Z,4.62
2019-02-16T00:37:44.043Z,4.95
2019-02-16T00:40:11.310Z,4.17
2019-02-16T00:42:39.327Z,4.40
2019-02-16T00:45:07.870Z,4.20
2019-02-16T00:47:36.047Z,4.58
2019-02-16T00:50:05.113Z,4.25
2019-02-16T00:52:33.188Z,4.75
2019-02-16T00:55:01.744Z,4.65
2019-02-16T00:57:30.708Z,4.20
2019-02-16T00:59:59.285Z,5.00
2019-02-16T01:02:26.573Z,4.37
2019-02-16T01:04:54.964Z,4.10
2019-02-16T01:07:28.625Z,4.87
2019-02-16T01:09:56.442Z,4.35
2019-02-16T01:12:24.600Z,4.45
2019-02-16T01:14:52.627Z,4.30
2019-02-16T01:17:21.670Z,4.85
2019-02-16T01:19:49.904Z,4.20
2019-02-16T01:22:17.076Z,4.92
2019-02-16T01:24:45.411Z,4.12
2019-02-16T01:27:14.553Z,4.47
2019-02-16T01:29:43.442Z,4.58
2019-02-16T01:32:11.288Z,4.50
2019-02-16T01:34:39.152Z,4.87
2019-02-16T01:37:07.738Z,4.30
2019-02-16T01:39:36.682Z,4.42
2019-02-16T01:42:03.838Z,4.17
2019-02-16T01:44:32.282Z,4.40
2019-02-16T01:47:00.456Z,4.10
2019-02-16T01:49:29.172Z,3.90
2019-02-16T01:51:57.774Z,3.98
2019-02-16T01:54:26.131Z,4.08
2019-02-16T01:56:54.684Z,3.90
2019-02-16T01:59:23.756Z,4.20
2019-02-16T02:01:52.305Z,4.00
2019-02-16T02:04:20.694Z,3.87
2019-02-16T02:06:49.416Z,4.20
2019-02-16T02:09:18.159Z,4.10
2019-02-16T02:11:47.187Z,4.60
2019-02-16T02:14:16.836Z,4.50
2019-02-16T02:16:44.466Z,5.05
2019-02-16T02:19:13.411Z,4.30
2019-02-16T02:21:43.115Z,4.10
2019-02-16T02:24:11.133Z,4.00
2019-02-16T02:26:38.538Z,3.62
2019-02-16T02:29:06.767Z,4.58
2019-02-16T02:31:37.447Z,4.37
2019-02-16T02:34:05.793Z,4.37
2019-02-16T02:36:34.273Z,4.42
2019-02-16T02:39:03.830Z,4.47
2019-02-16T02:41:32.109Z,3.87
2019-02-16T02:44:01.027Z,3.70
2019-02-16T02:46:29.210Z,4.75
2019-02-16T02:48:57.901Z,4.72
2019-02-16T02:51:26.574Z,4.00
2019-02-16T02:53:55.029Z,4.50
2019-02-16T02:56:23.351Z,4.28
2019-02-16T02:58:51.837Z,4.05
2019-02-16T03:01:20.219Z,4.95
2019-02-16T03:03:48.770Z,4.35
2019-02-16T03:06:17.477Z,4.60
2019-02-16T03:08:45.544Z,5.00
2019-02-16T03:11:13.645Z,4.80
2019-02-16T03:13:41.850Z,4.70
2019-02-16T03:16:10.258Z,4.70
2019-02-16T03:18:39.204Z,4.22
2019-02-16T03:21:07.701Z,3.75
2019-02-16T03:23:35.982Z,4.10
2019-02-16T03:26:30.208Z,4.10
2019-02-16T03:29:09.068Z,3.83
2019-02-16T03:32:49.188Z,4.30
2019-02-16T03:35:35.995Z,4.60
2019-02-16T03:38:18.395Z,4.30
2019-02-16T03:40:47.862Z,4.40
2019-02-16T03:43:15.582Z,4.50
2019-02-16T03:45:43.328Z,4.20
2019-02-16T03:48:10.646Z,4.92
2019-02-16T03:50:38.038Z,4.90
2019-02-16T03:53:05.011Z,4.85
2019-02-16T03:55:33.244Z,4.25
2019-02-16T03:58:00.666Z,4.62
2019-02-16T04:00:27.734Z,4.53
2019-02-16T04:02:55.261Z,4.53
2019-02-16T04:05:23.410Z,4.78
2019-02-16T04:07:51.292Z,4.85
2019-02-16T04:10:18.515Z,4.62
2019-02-16T04:12:45.956Z,4.60
2019-02-16T04:15:14.260Z,4.85
2019-02-16T04:17:42.227Z,4.40
2019-02-16T04:20:09.517Z,5.05
2019-02-16T04:22:37.481Z,4.67
2019-02-16T04:25:05.310Z,4.72
2019-02-16T04:27:32.977Z,4.55
2019-02-16T04:30:00.410Z,4.47
2019-02-16T04:32:28.082Z,4.80
2019-02-16T04:34:56.074Z,4.50
2019-02-16T04:37:24.034Z,4.60
2019-02-16T04:39:51.794Z,4.28
2019-02-16T04:42:19.358Z,5.08
2019-02-16T04:44:47.172Z,4.70
2019-02-16T04:47:14.855Z,4.55
2019-02-16T04:49:42.271Z,4.70
2019-02-16T04:52:09.387Z,4.78
2019-02-16T04:54:36.668Z,4.80
2019-02-16T04:57:03.752Z,5.12
2019-02-16T04:59:31.148Z,5.00
2019-02-16T05:01:58.354Z,4.53
2019-02-16T05:04:25.891Z,4.70
2019-02-16T05:06:53.161Z,4.30
2019-02-16T05:09:20.166Z,5.15
2019-02-16T05:11:47.577Z,4.72
2019-02-16T05:14:14.778Z,4.33
2019-02-16T05:16:42.113Z,4.00
2019-02-16T05:19:09.193Z,4.22
2019-02-16T05:21:36.630Z,4.37
2019-02-16T05:24:04.086Z,4.62
2019-02-16T05:26:31.764Z,4.80
2019-02-16T05:28:59.181Z,4.40
2019-02-16T05:31:26.277Z,4.60
2019-02-16T05:33:54.530Z,4.58
2019-02-16T05:36:22.401Z,4.08
2019-02-16T05:38:50.364Z,4.10
2019-02-16T05:41:17.631Z,4.65
2019-02-16T05:43:45.695Z,4.60
2019-02-16T05:46:14.991Z,4.83
2019-02-16T05:48:43.496Z,4.50
2019-02-16T05:51:11.956Z,4.35
2019-02-16T05:53:40.474Z,4.72
2019-02-16T05:56:10.331Z,4.45
2019-02-16T05:58:38.262Z,4.53
2019-02-16T06:01:05.639Z,4.65
2019-02-16T06:03:34.097Z,4.35
2019-02-16T06:06:03.362Z,4.17
2019-02-16T06:08:31.442Z,3.92
2019-02-16T06:11:00.218Z,4.53
2019-02-16T06:13:28.767Z,4.25
2019-02-16T06:15:56.942Z,4.05
2019-02-16T06:18:25.552Z,4.70
2019-02-16T06:20:54.134Z,4.33
2019-02-16T06:23:22.339Z,4.17
2019-02-16T06:25:50.904Z,3.90
2019-02-16T06:28:19.485Z,3.95
2019-02-16T06:30:49.215Z,3.90
2019-02-16T06:33:17.256Z,4.25
2019-02-16T06:35:48.398Z,3.60
2019-02-16T06:38:18.698Z,4.55
2019-02-16T06:40:47.715Z,4.28
2019-02-16T06:43:15.351Z,4.45
2019-02-16T06:45:44.270Z,4.03
2019-02-16T06:48:13.571Z,4.40
2019-02-16T06:50:41.290Z,4.17
2019-02-16T06:53:13.243Z,4.55
2019-02-16T06:55:48.046Z,4.50
2019-02-16T06:58:16.154Z,4.72
2019-02-16T07:00:44.782Z,4.10
2019-02-16T07:03:13.463Z,4.12
2019-02-16T07:05:40.823Z,4.58
2019-02-16T07:08:10.082Z,4.33
2019-02-16T07:10:37.514Z,4.65
2019-02-16T07:13:05.982Z,5.00
2019-02-16T07:15:34.505Z,4.20
2019-02-16T07:18:11.970Z,4.35
2019-02-16T07:20:40.287Z,4.15
2019-02-16T07:23:09.198Z,4.83
2019-02-16T07:25:37.903Z,4.20
2019-02-16T07:28:07.202Z,4.78
2019-02-16T07:30:35.259Z,4.62
2019-02-16T07:33:03.619Z,4.78
2019-02-16T07:35:32.198Z,4.95
2019-02-16T07:38:00.597Z,4.58
2019-02-16T07:40:29.386Z,4.25
2019-02-16T07:42:58.102Z,4.65
2019-02-16T07:46:00.984Z,4.45
2019-02-16T07:48:34.770Z,4.28
2019-02-16T07:51:12.325Z,4.62
2019-02-16T07:53:58.224Z,4.83
2019-02-16T07:56:37.797Z,4.83
2019-02-16T07:59:24.250Z,4.70
2019-02-16T08:02:18.075Z,4.72
2019-02-16T08:04:52.704Z,5.10
2019-02-16T08:07:34.170Z,4.70
2019-02-16T08:10:26.738Z,5.58
2019-02-16T08:13:21.020Z,5.28
2019-02-16T08:16:07.000Z,5.10
2019-02-16T08:18:57.313Z,4.70
2019-02-16T08:21:43.204Z,4.75
2019-02-16T08:24:28.974Z,5.30
2019-02-16T08:27:19.208Z,8.35
2019-02-16T08:29:55.894Z,5.08
2019-02-16T08:32:47.370Z,4.72
2019-02-16T08:35:24.362Z,4.45
2019-02-16T08:38:15.158Z,3.90
2019-02-16T08:41:08.412Z,4.53
2019-02-16T08:43:55.089Z,4.65
2019-02-16T08:46:50.787Z,4.30
2019-02-16T08:49:30.579Z,4.95
2019-02-16T08:52:08.854Z,4.03
2019-02-16T08:54:49.197Z,4.35
2019-02-16T08:57:34.573Z,4.40
2019-02-16T09:00:13.713Z,4.40
2019-02-16T09:02:55.728Z,4.80
2019-02-16T09:05:51.397Z,4.35
2019-02-16T09:08:28.749Z,4.65
2019-02-16T09:11:45.327Z,4.50
2019-02-16T09:14:25.931Z,4.35
2019-02-16T09:17:04.295Z,4.50
2019-02-16T09:19:48.639Z,4.28
2019-02-16T09:22:22.646Z,4.62
2019-02-16T09:25:08.702Z,5.08
2019-02-16T09:28:17.617Z,4.78
2019-02-16T09:30:57.706Z,5.05
2019-02-16T09:33:54.360Z,4.70
2019-02-16T09:36:47.798Z,4.42
2019-02-16T09:39:42.481Z,4.65
2019-02-16T09:42:18.319Z,4.30
2019-02-16T09:45:11.818Z,5.30
2019-02-16T09:48:05.667Z,4.70
2019-02-16T09:50:55.993Z,5.03
2019-02-16T09:53:45.630Z,5.80
2019-02-16T09:56:32.411Z,5.05
2019-02-16T09:59:25.839Z,4.97
2019-02-16T10:02:03.566Z,5.28
2019-02-16T10:04:36.862Z,4.97
2019-02-16T10:07:19.826Z,5.03
2019-02-16T10:09:54.060Z,5.58
2019-02-16T10:12:31.868Z,4.63
2019-02-16T10:15:18.646Z,5.07
2019-02-16T10:18:05.533Z,5.00
2019-02-16T10:20:44.355Z,5.77
2019-02-16T10:23:18.777Z,5.60
2019-02-16T10:26:05.302Z,5.70
2019-02-16T10:29:02.648Z,5.47
2019-02-16T10:31:39.994Z,6.67
2019-02-16T10:34:32.954Z,5.37
2019-02-16T10:37:28.879Z,5.70
2019-02-16T10:40:10.734Z,6.10
2019-02-16T10:43:16.594Z,5.30
2019-02-16T10:46:03.833Z,6.20
2019-02-16T10:49:10.339Z,6.20
2019-02-16T10:51:45.254Z,6.20
2019-02-16T10:54:45.329Z,6.40
2019-02-16T10:57:25.349Z,6.63
2019-02-16T11:00:22.859Z,6.20
2019-02-16T11:03:11.543Z,6.07
2019-02-16T11:05:45.482Z,6.40
2019-02-16T11:08:18.417Z,5.87
2019-02-16T11:10:53.523Z,6.53
2019-02-16T11:13:27.706Z,6.67
2019-02-16T11:16:12.112Z,6.37
2019-02-16T11:19:11.961Z,7.80
2019-02-16T11:22:00.673Z,7.43
2019-02-16T11:24:44.277Z,7.37
2019-02-16T11:27:35.978Z,7.47
2019-02-16T11:30:12.884Z,6.93
2019-02-16T11:33:03.933Z,9.07
2019-02-16T11:35:51.490Z,8.60
2019-02-16T11:38:42.811Z,7.73
2019-02-16T11:41:32.190Z,8.20
2019-02-16T11:44:12.361Z,7.60
2019-02-16T11:46:50.217Z,8.33
2019-02-16T11:49:45.262Z,8.20
2019-02-16T11:52:38.921Z,8.10
2019-02-16T11:55:32.725Z,8.57
2019-02-16T11:58:37.666Z,8.67
2019-02-16T12:01:15.446Z,8.57
2019-02-16T12:04:05.584Z,7.47
2019-02-16T12:06:48.482Z,9.87
2019-02-16T12:09:36.273Z,8.67
2019-02-16T12:12:21.652Z,8.20
2019-02-16T12:15:06.958Z,8.53
2019-02-16T12:17:56.769Z,8.27
2019-02-16T12:20:55.265Z,7.50
2019-02-16T12:23:49.349Z,8.50
2019-02-16T12:26:27.689Z,8.57
2019-02-16T12:29:18.080Z,8.67
2019-02-16T12:31:56.310Z,8.27
2019-02-16T12:34:30.942Z,10.30
2019-02-16T12:37:17.419Z,10.17
2019-02-16T12:40:18.444Z,8.77
2019-02-16T12:42:54.024Z,8.60
2019-02-16T12:46:00.501Z,9.30
2019-02-16T12:48:34.750Z,8.57
2019-02-16T12:51:36.359Z,8.63
2019-02-16T12:54:30.219Z,8.50
2019-02-16T12:57:08.562Z,8.30
2019-02-16T12:59:54.786Z,9.30
2019-02-16T13:02:54.548Z,9.03
2019-02-16T13:05:49.627Z,9.83
2019-02-16T13:08:28.438Z,10.00
2019-02-16T13:11:21.741Z,13.10
2019-02-16T13:14:10.461Z,9.83
2019-02-16T13:17:05.990Z,9.17
2019-02-16T13:19:37.914Z,8.63
2019-02-16T13:22:14.610Z,7.80
2019-02-16T13:25:04.843Z,7.97
2019-02-16T13:27:55.435Z,8.40
2019-02-16T13:30:48.830Z,7.30
2019-02-16T13:33:42.389Z,7.80
2019-02-16T13:36:29.425Z,7.97
2019-02-16T13:39:19.482Z,8.03
2019-02-16T13:42:16.217Z,7.90
2019-02-16T13:44:54.697Z,7.47
2019-02-16T13:47:28.104Z,8.00
2019-02-16T13:50:08.098Z,7.90
2019-02-16T13:52:50.621Z,6.93
2019-02-16T13:55:23.411Z,7.10
2019-02-16T13:58:12.270Z,7.83
2019-02-16T14:00:53.972Z,8.20
2019-02-16T14:04:17.881Z,7.97
2019-02-16T14:07:17.184Z,7.23
2019-02-16T14:10:10.064Z,7.40
2019-02-16T14:12:45.731Z,7.03
2019-02-16T14:15:23.945Z,7.33
2019-02-16T14:17:55.475Z,7.03
2019-02-16T14:20:27.882Z,7.53
2019-02-16T14:22:55.230Z,8.47
2019-02-16T14:25:45.613Z,7.43
2019-02-16T14:28:13.061Z,7.97
2019-02-16T14:30:40.431Z,7.80
2019-02-16T14:33:07.774Z,8.47
2019-02-16T14:35:35.021Z,7.33
2019-02-16T14:38:07.232Z,8.33
2019-02-16T14:40:34.426Z,7.90
2019-02-16T14:43:01.743Z,8.23
2019-02-16T14:45:30.819Z,8.20
2019-02-16T14:47:57.855Z,8.03
2019-02-16T14:50:25.041Z,8.20
2019-02-16T14:52:52.710Z,8.10
2019-02-16T14:55:19.705Z,8.90
2019-02-16T14:57:46.763Z,9.50
2019-02-16T15:00:13.957Z,7.10
2019-02-16T15:02:41.201Z,8.10
2019-02-16T15:05:08.518Z,8.80
2019-02-16T15:07:35.677Z,8.13
2019-02-16T15:10:03.063Z,8.53
2019-02-16T15:12:30.425Z,8.63
2019-02-16T15:14:57.598Z,8.67
2019-02-16T15:17:24.849Z,8.80
2019-02-16T15:19:52.034Z,9.30
2019-02-16T15:22:19.462Z,8.50
2019-02-16T15:24:46.702Z,8.67
2019-02-16T15:27:13.958Z,8.67
2019-02-16T15:29:42.134Z,10.70
2019-02-16T15:32:09.606Z,9.87
2019-02-16T15:34:38.691Z,10.10
2019-02-16T15:37:06.075Z,9.50
2019-02-16T15:39:34.367Z,9.60
2019-02-16T15:42:11.717Z,10.27
2019-02-16T15:44:38.799Z,10.63
2019-02-16T15:47:05.955Z,10.70
2019-02-16T15:49:33.250Z,9.80
2019-02-16T15:52:01.878Z,10.57
2019-02-16T15:54:29.377Z,10.20
2019-02-16T15:56:58.874Z,10.87
2019-02-16T15:59:34.861Z,11.40
2019-02-16T16:01:55.436Z,11.20
2019-02-16T16:04:22.715Z,10.40
2019-02-16T16:06:49.748Z,10.30
2019-02-16T16:09:54.950Z,10.67
2019-02-16T16:12:50.873Z,9.90
2019-02-16T16:15:41.580Z,10.27
2019-02-16T16:18:17.339Z,10.87
2019-02-16T16:20:56.693Z,11.43
2019-02-16T16:23:40.415Z,10.20
2019-02-16T16:26:25.811Z,9.80
2019-02-16T16:29:05.082Z,10.37
2019-02-16T16:31:46.120Z,10.10
2019-02-16T16:34:21.037Z,9.87
2019-02-16T16:37:04.083Z,9.37
2019-02-16T16:40:03.183Z,10.00
2019-02-16T16:42:44.236Z,12.33
2019-02-16T16:45:21.940Z,12.20
2019-02-16T16:48:16.907Z,12.33
2019-02-16T16:50:52.178Z,12.00
2019-02-16T16:53:35.765Z,12.20
2019-02-16T16:56:32.450Z,11.23
2019-02-16T16:59:17.942Z,12.10
2019-02-16T17:02:13.298Z,12.30
2019-02-16T17:05:06.097Z,12.30
2019-02-16T17:07:52.898Z,12.47
2019-02-16T17:10:28.063Z,12.40
2019-02-16T17:13:10.881Z,13.07
2019-02-16T17:15:57.659Z,14.13
2019-02-16T17:18:45.414Z,12.57
2019-02-16T17:21:38.433Z,13.20
2019-02-16T17:24:16.229Z,13.40
2019-02-16T17:27:01.423Z,14.00
2019-02-16T17:29:43.545Z,13.43
2019-02-16T17:32:31.806Z,13.30
2019-02-16T17:35:33.610Z,14.20
2019-02-16T17:38:21.142Z,15.10
2019-02-16T17:40:54.979Z,15.00
2019-02-16T17:43:39.949Z,14.50
2019-02-16T17:46:32.874Z,15.03
2019-02-16T17:49:10.488Z,15.30
2019-02-16T17:52:09.087Z,15.85
2019-02-16T17:54:55.672Z,15.33
2019-02-16T17:57:48.377Z,16.00
2019-02-16T18:00:41.347Z,15.65
2019-02-16T18:03:30.892Z,16.60
2019-02-16T18:06:22.754Z,17.35
2019-02-16T18:09:28.372Z,18.35
2019-02-16T18:12:13.555Z,18.82
2019-02-16T18:15:01.095Z,18.90
2019-02-16T18:17:52.805Z,17.02
2019-02-16T18:20:33.534Z,18.12
2019-02-16T18:23:09.148Z,17.55
2019-02-16T18:26:00.102Z,18.52
2019-02-16T18:28:43.412Z,18.48
2019-02-16T18:31:30.318Z,19.27
2019-02-16T18:34:16.644Z,19.02
2019-02-16T18:36:52.583Z,18.32
2019-02-16T18:39:32.952Z,18.27
2019-02-16T18:42:21.209Z,18.82
2019-02-16T18:45:08.143Z,17.02
2019-02-16T18:48:03.037Z,17.23
2019-02-16T18:50:49.037Z,16.73
2019-02-16T18:53:46.357Z,16.70
2019-02-16T18:56:34.728Z,15.48
2019-02-16T18:59:34.423Z,14.65
2019-02-16T19:02:21.575Z,15.43
2019-02-16T19:04:57.461Z,14.28
2019-02-16T19:07:43.043Z,14.87
2019-02-16T19:10:24.055Z,14.53
2019-02-16T19:13:18.416Z,15.30
2019-02-16T19:16:05.296Z,15.45
2019-02-16T19:18:43.557Z,16.02
2019-02-16T19:21:26.877Z,17.77
2019-02-16T19:24:13.111Z,16.00
2019-02-16T19:27:01.138Z,14.93
2019-02-16T19:29:55.566Z,16.40
2019-02-16T19:32:42.643Z,15.30
2019-02-16T19:35:28.746Z,17.07
2019-02-16T19:38:05.081Z,15.83
2019-02-16T19:40:40.995Z,16.50
2019-02-16T19:43:17.339Z,16.57
2019-02-16T19:45:55.005Z,16.30
2019-02-16T19:48:55.497Z,16.37
2019-02-16T19:51:47.323Z,16.35
2019-02-16T19:54:35.345Z,14.60
2019-02-16T19:57:27.278Z,15.30
2019-02-16T20:00:30.146Z,15.35
2019-02-16T20:03:27.535Z,15.03
2019-02-16T20:06:15.747Z,15.93
2019-02-16T20:08:52.416Z,14.40
2019-02-16T20:11:40.551Z,13.45
2019-02-16T20:14:31.780Z,14.15
2019-02-16T20:17:15.086Z,14.38
2019-02-16T20:19:54.014Z,15.88
2019-02-16T20:22:30.206Z,15.25
2019-02-16T20:25:21.367Z,15.10
2019-02-16T20:28:07.911Z,16.50
2019-02-16T20:30:51.318Z,15.63
2019-02-16T20:33:40.210Z,17.23
2019-02-16T20:36:31.418Z,15.63
2019-02-16T20:39:18.350Z,16.07
2019-02-16T20:42:01.024Z,16.67
2019-02-16T20:44:37.010Z,15.43
2019-02-16T20:47:19.742Z,15.80
2019-02-16T20:50:13.328Z,16.75
2019-02-16T20:52:56.987Z,15.75
2019-02-16T20:55:48.079Z,16.37
2019-02-16T20:58:41.786Z,15.90
2019-02-16T21:01:27.238Z,15.10
2019-02-16T21:04:14.365Z,13.72
2019-02-16T21:07:10.914Z,15.08
2019-02-16T21:09:57.933Z,15.55
2019-02-16T21:12:49.306Z,15.25
2019-02-16T21:15:46.676Z,14.47
2019-02-16T21:18:43.724Z,14.23
2019-02-16T21:21:33.670Z,15.45
2019-02-16T21:24:25.410Z,15.00
2019-02-16T21:27:00.944Z,13.80
2019-02-16T21:29:46.360Z,14.75
2019-02-16T21:32:34.482Z,14.58
2019-02-16T21:35:28.559Z,13.90
2019-02-16T21:38:06.546Z,14.53
2019-02-16T21:41:12.708Z,15.20
2019-02-16T21:43:59.138Z,15.23
2019-02-16T21:46:36.607Z,14.30
2019-02-16T21:49:24.743Z,15.65
2019-02-16T21:52:16.035Z,15.70
2019-02-16T21:55:02.310Z,15.72
2019-02-16T21:57:50.102Z,16.67
2019-02-16T22:00:34.986Z,16.25
2019-02-16T22:03:41.063Z,15.78
2019-02-16T22:06:30.052Z,15.80
2019-02-16T22:09:26.899Z,17.65
2019-02-16T22:12:21.921Z,16.37
2019-02-16T22:14:50.326Z,16.52
2019-02-16T22:17:18.522Z,16.70
2019-02-16T22:19:47.472Z,18.10
2019-02-16T22:22:15.651Z,15.78
2019-02-16T22:24:43.814Z,15.95
2019-02-16T22:27:12.311Z,16.55
2019-02-16T22:29:40.491Z,17.82
2019-02-16T22:32:21.807Z,16.17
2019-02-16T22:34:50.445Z,17.17
2019-02-16T22:37:18.777Z,17.00
2019-02-16T22:39:47.102Z,16.20
2019-02-16T22:42:15.214Z,15.80
2019-02-16T22:44:43.461Z,16.00
2019-02-16T22:47:11.530Z,16.20
2019-02-16T22:49:39.895Z,15.65
2019-02-16T22:52:08.336Z,16.10
2019-02-16T22:54:38.431Z,19.15
2019-02-16T22:57:06.558Z,17.65
2019-02-16T22:59:34.658Z,19.02
2019-02-16T23:02:03.293Z,19.67
2019-02-16T23:04:31.590Z,20.77
2019-02-16T23:06:59.799Z,20.52
2019-02-16T23:09:28.681Z,19.82
2019-02-16T23:11:56.934Z,18.90
2019-02-16T23:14:25.139Z,18.27
2019-02-16T23:16:53.513Z,18.82
2019-02-16T23:19:22.002Z,18.70
2019-02-16T23:21:50.158Z,19.15
2019-02-16T23:24:18.464Z,20.97
2019-02-16T23:26:46.735Z,20.60
2019-02-16T23:29:15.127Z,17.65
2019-02-16T23:31:43.524Z,19.65
2019-02-16T23:34:11.947Z,18.57
2019-02-16T23:36:40.134Z,17.02
2019-02-16T23:39:10.456Z,16.97
2019-02-16T23:41:38.593Z,17.12
2019-02-16T23:44:06.675Z,17.70
2019-02-16T23:46:34.827Z,17.92
2019-02-16T23:49:03.241Z,16.00
2019-02-16T23:51:31.823Z,18.15
2019-02-16T23:53:59.983Z,16.25
2019-02-16T23:56:29.162Z,17.37
2019-02-16T23:58:56.462Z,17.15
